Time;durP1;ratioP1;P1;durP2;ratioP2;P2;SDS_P1;SDS_P2;PMS_P1;PMS_P2;Temp;Humidity;BMP_temperature;BMP_pressure;BME280_temperature;BME280_humidity;BME280_pressure;Samples;Min_cycle;Max_cycle;Signal;HPM_P1;HPM_P2
2021/10/25 00:01:56;;;;;;;22.15;15.60;;;5.40;43.90;;;;;;5056682;28;20094;-69
2021/10/25 00:04:26;;;;;;;21.77;14.85;;;5.20;43.90;;;;;;5059145;28;20056;-69
2021/10/25 00:06:58;;;;;;;25.95;15.82;;;5.20;44.80;;;;;;5059533;28;20119;-69
2021/10/25 00:09:30;;;;;;;26.63;17.27;;;5.30;46.30;;;;;;5056984;28;20063;-68
2021/10/25 00:12:03;;;;;;;24.45;16.55;;;5.40;46.30;;;;;;5063307;28;20044;-68
2021/10/25 00:14:31;;;;;;;26.15;16.75;;;5.50;46.90;;;;;;5064528;28;20530;-68
2021/10/25 00:17:03;;;;;;;27.00;17.08;;;5.60;46.50;;;;;;5055925;28;20051;-68
2021/10/25 00:19:31;;;;;;;25.40;17.80;;;5.50;46.40;;;;;;5053526;28;20120;-69
2021/10/25 00:22:01;;;;;;;28.27;17.58;;;5.50;46.60;;;;;;5056117;28;20475;-68
2021/10/25 00:24:30;;;;;;;31.42;17.23;;;5.60;46.90;;;;;;5054912;28;20044;-68
2021/10/25 00:26:58;;;;;;;26.40;17.48;;;5.50;45.70;;;;;;5055921;28;20077;-69
2021/10/25 00:29:28;;;;;;;22.48;15.77;;;5.40;46.20;;;;;;5060180;28;20129;-69
2021/10/25 00:31:56;;;;;;;26.70;17.10;;;5.40;46.50;;;;;;5061246;28;20442;-68
2021/10/25 00:34:27;;;;;;;28.15;17.25;;;5.40;46.80;;;;;;5062708;28;20093;-69
2021/10/25 00:37:02;;;;;;;26.98;15.93;;;5.40;46.80;;;;;;5055527;28;20569;-69
2021/10/25 00:39:31;;;;;;;25.87;16.60;;;5.30;46.60;;;;;;5060777;28;20080;-69
2021/10/25 00:42:01;;;;;;;27.40;17.20;;;5.30;46.60;;;;;;5058888;28;20614;-69
2021/10/25 00:44:34;;;;;;;26.40;16.63;;;5.20;46.80;;;;;;5050976;28;20422;-69
2021/10/25 00:47:03;;;;;;;26.67;16.38;;;5.20;46.80;;;;;;5057169;28;20055;-69
2021/10/25 00:49:35;;;;;;;26.65;16.45;;;5.20;47.10;;;;;;5061429;28;20052;-69
2021/10/25 00:52:04;;;;;;;25.45;16.58;;;5.10;47.10;;;;;;5065835;28;20049;-69
2021/10/25 00:54:35;;;;;;;29.23;17.30;;;5.10;47.80;;;;;;5057296;28;20115;-69
2021/10/25 00:57:14;;;;;;;25.35;16.58;;;5.20;48.30;;;;;;5058178;28;20078;-69
2021/10/25 00:59:43;;;;;;;25.60;16.95;;;5.20;47.90;;;;;;5067752;28;20554;-69
2021/10/25 01:02:11;;;;;;;25.15;16.35;;;5.20;47.50;;;;;;5064141;28;20094;-69
2021/10/25 01:04:43;;;;;;;26.60;17.15;;;5.10;47.50;;;;;;5068026;28;20045;-69
2021/10/25 01:07:15;;;;;;;23.55;16.58;;;5.10;47.10;;;;;;5054711;28;20055;-68
2021/10/25 01:09:44;;;;;;;25.08;16.45;;;5.10;47.10;;;;;;5059942;28;20131;-68
2021/10/25 01:12:12;;;;;;;25.17;16.15;;;5.10;47.20;;;;;;5061202;28;20079;-68
2021/10/25 01:14:40;;;;;;;27.25;16.40;;;4.90;46.80;;;;;;5057053;28;20044;-69
2021/10/25 01:17:12;;;;;;;24.48;15.80;;;4.90;47.60;;;;;;5058856;28;20048;-69
2021/10/25 01:19:40;;;;;;;24.08;15.75;;;4.90;47.90;;;;;;5061569;28;20041;-69
2021/10/25 01:22:10;;;;;;;26.85;16.50;;;4.90;48.00;;;;;;5062942;28;20883;-69
2021/10/25 01:24:38;;;;;;;29.48;18.23;;;4.90;48.30;;;;;;5059339;28;20040;-69
2021/10/25 01:27:06;;;;;;;26.10;17.35;;;4.80;47.80;;;;;;5066313;28;20057;-68
2021/10/25 01:29:36;;;;;;;22.83;15.10;;;4.80;48.50;;;;;;5063118;28;20060;-69
2021/10/25 01:32:06;;;;;;;24.30;15.00;;;4.80;48.30;;;;;;5060346;28;20094;-69
2021/10/25 01:34:37;;;;;;;24.58;16.60;;;4.90;49.00;;;;;;5066688;28;20060;-69
2021/10/25 01:37:07;;;;;;;23.58;15.70;;;4.90;48.80;;;;;;5058903;28;20048;-69
2021/10/25 01:39:39;;;;;;;25.60;17.02;;;4.90;49.10;;;;;;5068230;28;20036;-69
2021/10/25 01:42:07;;;;;;;24.88;15.77;;;4.90;48.90;;;;;;5068148;28;20124;-69
2021/10/25 01:44:36;;;;;;;29.23;16.15;;;4.90;49.10;;;;;;5059932;28;20569;-69
2021/10/25 01:47:06;;;;;;;30.75;16.85;;;5.00;49.50;;;;;;5055768;28;20048;-69
2021/10/25 01:49:36;;;;;;;27.42;17.90;;;4.90;49.20;;;;;;5062534;28;20045;-69
2021/10/25 01:52:05;;;;;;;27.63;17.77;;;4.90;49.00;;;;;;5061259;28;20068;-69
2021/10/25 01:54:33;;;;;;;26.85;16.65;;;5.00;49.00;;;;;;5053382;28;20045;-69
2021/10/25 01:57:07;;;;;;;24.42;15.90;;;4.90;48.30;;;;;;5060455;28;20044;-69
2021/10/25 01:59:37;;;;;;;26.38;16.20;;;4.90;48.50;;;;;;5064151;28;20580;-69
2021/10/25 02:02:10;;;;;;;27.27;16.58;;;4.80;49.30;;;;;;5059162;28;20044;-69
2021/10/25 02:04:40;;;;;;;26.25;16.27;;;4.90;49.60;;;;;;5065897;28;20033;-69
2021/10/25 02:07:08;;;;;;;26.40;16.48;;;5.00;49.60;;;;;;5061198;28;20051;-68
2021/10/25 02:09:36;;;;;;;22.90;15.35;;;5.00;48.80;;;;;;5055607;28;20140;-68
2021/10/25 02:12:06;;;;;;;24.88;17.42;;;5.00;49.00;;;;;;5055132;28;20075;-68
2021/10/25 02:14:34;;;;;;;25.73;16.02;;;4.90;48.70;;;;;;5052999;28;20066;-68
2021/10/25 02:17:02;;;;;;;27.63;16.10;;;4.90;48.80;;;;;;5053169;28;20492;-69
2021/10/25 02:19:31;;;;;;;27.92;16.27;;;4.90;48.40;;;;;;5058303;28;20106;-69
2021/10/25 02:22:03;;;;;;;22.02;15.57;;;4.80;48.30;;;;;;5059155;28;20102;-69
2021/10/25 02:24:37;;;;;;;28.10;15.93;;;4.80;48.30;;;;;;5056378;28;20057;-69
2021/10/25 02:27:06;;;;;;;22.92;14.98;;;4.80;49.10;;;;;;5057819;28;20047;-68
2021/10/25 02:29:36;;;;;;;23.67;15.25;;;4.80;49.20;;;;;;5060884;28;20080;-68
2021/10/25 02:32:04;;;;;;;23.80;15.10;;;4.80;49.10;;;;;;5057909;28;20032;-69
2021/10/25 02:34:34;;;;;;;23.95;14.55;;;4.80;49.10;;;;;;5053100;28;20036;-69
2021/10/25 02:37:03;;;;;;;24.83;15.90;;;4.70;49.00;;;;;;5058587;28;20052;-69
2021/10/25 02:39:34;;;;;;;21.88;14.38;;;4.80;49.60;;;;;;5062563;28;20496;-69
2021/10/25 02:42:04;;;;;;;24.15;16.13;;;4.70;49.30;;;;;;5061914;28;20040;-69
2021/10/25 02:44:38;;;;;;;24.15;15.02;;;4.80;50.00;;;;;;5058180;28;20044;-69
2021/10/25 02:47:07;;;;;;;21.77;15.60;;;4.80;49.90;;;;;;5059647;28;20496;-69
2021/10/25 02:49:35;;;;;;;26.58;15.20;;;4.80;49.50;;;;;;5061083;28;20127;-69
2021/10/25 02:52:06;;;;;;;24.30;15.75;;;4.80;49.90;;;;;;5065419;28;20094;-69
2021/10/25 02:54:37;;;;;;;24.60;16.35;;;4.80;49.50;;;;;;5067471;28;20523;-68
2021/10/25 02:57:06;;;;;;;23.55;15.07;;;4.80;49.50;;;;;;5060428;28;20127;-68
2021/10/25 02:59:35;;;;;;;25.17;15.57;;;4.90;49.90;;;;;;5057489;28;20048;-68
2021/10/25 03:02:05;;;;;;;26.80;16.65;;;4.90;49.20;;;;;;5066343;28;20060;-69
2021/10/25 03:04:35;;;;;;;26.58;16.23;;;4.90;49.30;;;;;;5056171;28;20082;-68
2021/10/25 03:07:04;;;;;;;21.20;14.73;;;4.80;48.50;;;;;;5064572;28;20041;-69
2021/10/25 03:09:35;;;;;;;23.48;15.52;;;4.70;48.80;;;;;;5062565;28;20040;-69
2021/10/25 03:12:04;;;;;;;23.48;14.43;;;4.70;48.30;;;;;;5057571;28;20044;-69
2021/10/25 03:14:33;;;;;;;22.42;15.20;;;4.70;48.90;;;;;;5058482;28;20485;-69
2021/10/25 03:17:01;;;;;;;23.88;14.93;;;4.60;49.10;;;;;;5059853;28;20042;-68
2021/10/25 03:19:30;;;;;;;23.80;14.52;;;4.70;49.40;;;;;;5058687;28;20048;-68
2021/10/25 03:21:58;;;;;;;24.50;14.27;;;4.70;49.10;;;;;;5064679;28;20106;-69
2021/10/25 03:24:26;;;;;;;19.85;13.63;;;4.70;49.20;;;;;;5061315;28;20119;-69
2021/10/25 03:26:57;;;;;;;22.90;14.38;;;4.60;48.70;;;;;;5057158;28;20040;-69
2021/10/25 03:29:25;;;;;;;21.13;14.00;;;4.70;48.90;;;;;;5065891;28;20411;-69
2021/10/25 03:31:53;;;;;;;23.92;15.07;;;4.70;48.80;;;;;;5066014;28;20036;-69
2021/10/25 03:34:23;;;;;;;22.77;14.27;;;4.70;48.40;;;;;;5054591;28;20572;-69
2021/10/25 03:36:53;;;;;;;19.33;13.38;;;4.60;48.10;;;;;;5059758;28;20120;-69
2021/10/25 03:39:24;;;;;;;22.08;13.93;;;4.60;47.90;;;;;;5065603;28;20517;-69
2021/10/25 03:41:54;;;;;;;22.92;14.40;;;4.60;48.20;;;;;;5055162;28;20709;-69
2021/10/25 03:44:25;;;;;;;22.88;14.52;;;4.60;48.50;;;;;;5059863;28;20135;-69
2021/10/25 03:47:01;;;;;;;27.05;14.55;;;4.50;48.50;;;;;;5059666;28;20557;-68
2021/10/25 03:49:53;;;;;;;22.50;14.15;;;4.50;48.70;;;;;;5054147;28;20055;-68
2021/10/25 03:52:42;;;;;;;20.65;14.43;;;4.50;48.70;;;;;;5057109;28;20066;-68
2021/10/25 03:55:15;;;;;;;21.75;14.93;;;4.40;48.40;;;;;;5059684;28;20106;-68
2021/10/25 04:26:25;;;;;;;22.10;14.68;;;4.50;49.10;;;;;;5059580;28;20079;-68
2021/10/25 04:28:53;;;;;;;21.77;14.43;;;4.50;48.60;;;;;;5065734;28;20049;-68
2021/10/25 04:31:21;;;;;;;22.67;15.18;;;4.50;48.10;;;;;;5066229;28;20083;-68
2021/10/25 04:33:51;;;;;;;19.95;13.98;;;4.60;47.30;;;;;;5061633;28;20052;-69
2021/10/25 04:36:19;;;;;;;21.60;13.13;;;4.50;46.90;;;;;;5061526;28;20070;-68
2021/10/25 04:38:49;;;;;;;20.70;13.35;;;4.50;46.30;;;;;;5062689;28;20132;-68
2021/10/25 04:41:20;;;;;;;19.10;13.05;;;4.50;46.30;;;;;;5061805;28;20055;-68
2021/10/25 04:43:50;;;;;;;20.40;13.23;;;4.40;45.80;;;;;;5062313;28;20094;-68
2021/10/25 04:46:21;;;;;;;20.50;13.52;;;4.50;46.20;;;;;;5039995;28;20094;-68
2021/10/25 04:48:54;;;;;;;23.80;13.95;;;4.40;46.00;;;;;;5064569;28;20404;-68
2021/10/25 04:51:21;;;;;;;22.05;13.25;;;4.40;46.00;;;;;;5061085;28;20059;-68
2021/10/25 04:53:54;;;;;;;18.48;13.02;;;4.40;46.10;;;;;;5060674;28;20051;-68
2021/10/25 04:56:25;;;;;;;22.40;14.10;;;4.40;46.50;;;;;;5059793;28;20070;-68
2021/10/25 04:58:54;;;;;;;19.50;13.50;;;4.40;46.60;;;;;;5062602;28;20458;-68
2021/10/25 05:01:24;;;;;;;19.60;13.05;;;4.40;46.00;;;;;;5063440;28;20076;-68
2021/10/25 05:03:53;;;;;;;21.33;13.85;;;4.40;45.80;;;;;;5060584;28;20505;-68
2021/10/25 05:06:21;;;;;;;19.35;12.98;;;4.50;45.60;;;;;;5057639;28;20882;-68
2021/10/25 05:08:49;;;;;;;25.67;15.18;;;4.50;45.30;;;;;;5065081;28;20044;-69
2021/10/25 05:11:17;;;;;;;23.42;14.38;;;4.50;45.70;;;;;;5067375;28;20048;-69
2021/10/25 05:13:47;;;;;;;19.92;13.27;;;4.50;45.20;;;;;;5062888;28;20580;-69
2021/10/25 05:16:16;;;;;;;21.02;13.73;;;4.40;45.60;;;;;;5057681;28;20122;-69
2021/10/25 05:18:48;;;;;;;20.85;14.70;;;4.40;45.70;;;;;;5063043;28;20041;-68
2021/10/25 05:21:17;;;;;;;24.30;14.50;;;4.40;45.60;;;;;;5060993;28;20566;-68
2021/10/25 05:23:45;;;;;;;23.73;14.23;;;4.50;45.50;;;;;;5058210;28;20053;-68
2021/10/25 05:26:14;;;;;;;23.90;14.30;;;4.50;45.20;;;;;;5062537;28;20068;-68
2021/10/25 05:28:43;;;;;;;25.00;16.17;;;4.50;45.00;;;;;;5067368;28;20045;-68
2021/10/25 05:31:16;;;;;;;24.58;15.88;;;4.60;44.60;;;;;;5056172;28;20123;-67
2021/10/25 05:33:45;;;;;;;23.80;15.82;;;4.70;44.20;;;;;;5064395;28;20149;-68
2021/10/25 05:36:14;;;;;;;18.55;13.82;;;4.70;44.00;;;;;;5060425;28;20098;-68
2021/10/25 05:38:45;;;;;;;22.33;15.75;;;4.70;42.80;;;;;;5061784;28;20045;-69
2021/10/25 05:41:16;;;;;;;22.65;15.07;;;4.70;42.80;;;;;;5067816;28;20142;-69
2021/10/25 05:43:47;;;;;;;23.75;14.82;;;4.70;42.00;;;;;;5060815;28;20043;-68
2021/10/25 05:46:16;;;;;;;24.00;14.23;;;4.70;42.00;;;;;;5054027;28;20090;-69
2021/10/25 05:48:44;;;;;;;24.80;15.13;;;4.70;42.00;;;;;;5060094;28;20099;-69
2021/10/25 05:51:15;;;;;;;23.70;14.50;;;4.70;42.00;;;;;;5063355;28;20085;-68
2021/10/25 05:53:45;;;;;;;21.65;13.65;;;4.70;42.00;;;;;;5062600;28;20577;-67
2021/10/25 05:56:14;;;;;;;22.08;13.45;;;4.70;42.00;;;;;;5060852;28;20491;-68
2021/10/25 05:58:46;;;;;;;24.58;14.10;;;4.80;41.90;;;;;;5066616;28;20037;-68
2021/10/25 06:01:22;;;;;;;20.17;13.82;;;4.70;41.60;;;;;;5058314;28;20068;-68
2021/10/25 06:03:58;;;;;;;21.73;14.70;;;4.80;41.40;;;;;;5063635;28;20777;-68
2021/10/25 06:06:26;;;;;;;21.05;13.80;;;4.80;40.90;;;;;;5059720;28;20108;-68
2021/10/25 06:08:54;;;;;;;22.95;14.45;;;4.70;40.70;;;;;;5064560;28;20113;-68
2021/10/25 06:11:23;;;;;;;23.83;14.30;;;4.70;41.10;;;;;;5057375;28;20055;-68
2021/10/25 06:13:56;;;;;;;23.95;14.70;;;4.80;40.90;;;;;;5064082;28;20044;-68
2021/10/25 06:16:36;;;;;;;25.08;14.32;;;4.80;40.30;;;;;;5056694;28;20037;-69
2021/10/25 06:19:04;;;;;;;22.58;13.93;;;4.80;39.80;;;;;;5060164;28;20106;-68
2021/10/25 06:21:36;;;;;;;20.42;14.00;;;4.80;39.70;;;;;;5060059;28;20044;-68
2021/10/25 06:24:05;;;;;;;21.38;13.90;;;4.80;40.00;;;;;;5055362;28;20516;-68
2021/10/25 06:26:37;;;;;;;21.75;14.10;;;4.80;39.10;;;;;;5059891;28;20041;-69
2021/10/25 06:29:05;;;;;;;20.00;13.68;;;4.80;39.20;;;;;;5063886;28;20041;-69
2021/10/25 06:31:36;;;;;;;23.20;14.60;;;4.80;39.50;;;;;;5065225;28;20535;-68
2021/10/25 06:34:11;;;;;;;23.33;14.32;;;4.80;39.10;;;;;;5063912;28;20045;-68
2021/10/25 06:36:47;;;;;;;17.77;12.35;;;4.90;38.60;;;;;;5054030;28;20041;-68
2021/10/25 06:39:29;;;;;;;20.20;12.93;;;4.90;38.00;;;;;;5063709;28;20500;-68
2021/10/25 06:42:01;;;;;;;21.05;12.90;;;5.00;37.30;;;;;;5057184;28;20504;-68
2021/10/25 06:44:29;;;;;;;18.85;12.48;;;5.00;36.00;;;;;;5064756;28;20050;-68
2021/10/25 06:46:59;;;;;;;18.30;12.32;;;5.00;35.90;;;;;;5055560;28;20454;-69
2021/10/25 06:49:28;;;;;;;19.70;12.13;;;5.00;35.40;;;;;;5065563;28;20072;-68
2021/10/25 06:52:01;;;;;;;19.95;13.02;;;5.00;35.30;;;;;;5057637;28;20071;-68
2021/10/25 06:54:29;;;;;;;20.25;13.38;;;5.00;35.20;;;;;;5059129;28;20094;-68
2021/10/25 06:56:57;;;;;;;20.92;13.73;;;5.00;35.10;;;;;;5058235;28;20527;-68
2021/10/25 06:59:25;;;;;;;21.98;14.48;;;5.00;34.90;;;;;;5063182;28;20036;-68
2021/10/25 07:01:54;;;;;;;20.85;13.35;;;5.10;34.60;;;;;;5059387;28;20056;-68
2021/10/25 07:04:24;;;;;;;21.90;13.98;;;5.20;34.00;;;;;;5062511;28;20152;-68
2021/10/25 07:06:55;;;;;;;22.88;14.13;;;5.20;34.00;;;;;;5054645;28;20041;-68
2021/10/25 07:09:23;;;;;;;17.95;12.90;;;5.20;33.80;;;;;;5055286;28;20049;-68
2021/10/25 07:11:51;;;;;;;21.55;13.13;;;5.30;32.60;;;;;;5063296;28;20076;-68
2021/10/25 07:14:28;;;;;;;19.00;12.10;;;5.30;32.40;;;;;;5061912;28;20045;-68
2021/10/25 07:17:08;;;;;;;18.85;12.75;;;5.30;32.60;;;;;;5057927;28;20256;-68
2021/10/25 07:19:51;;;;;;;24.48;13.25;;;5.20;31.70;;;;;;5058933;28;20440;-68
2021/10/25 08:07:10;;;;;;;14.57;10.25;;;7.30;16.10;;;;;;5063970;28;20128;-68
2021/10/25 08:09:52;;;;;;;19.17;10.60;;;7.20;15.50;;;;;;5061556;28;20048;-68
2021/10/25 08:12:26;;;;;;;14.25;9.88;;;7.20;16.30;;;;;;5069496;28;20512;-69
2021/10/25 08:14:57;;;;;;;16.10;10.43;;;7.10;16.20;;;;;;5067674;28;20052;-69
2021/10/25 08:17:40;;;;;;;13.93;9.82;;;7.20;16.80;;;;;;5059583;28;20124;-68
2021/10/25 08:20:09;;;;;;;15.57;10.23;;;7.30;15.90;;;;;;5062206;28;20128;-68
2021/10/25 08:22:38;;;;;;;15.38;10.25;;;7.40;16.70;;;;;;5067462;28;20049;-69
2021/10/25 08:25:09;;;;;;;17.50;9.45;;;7.40;15.40;;;;;;5063739;28;20037;-68
2021/10/25 08:27:38;;;;;;;17.67;10.10;;;7.50;16.20;;;;;;5060376;28;20131;-68
2021/10/25 08:30:11;;;;;;;17.00;9.88;;;7.60;15.80;;;;;;5062161;28;20048;-69
2021/10/25 08:32:59;;;;;;;16.05;9.50;;;7.70;15.30;;;;;;5065392;28;20078;-68
2021/10/25 08:35:52;;;;;;;17.10;10.30;;;7.60;13.40;;;;;;5060175;28;20064;-69
2021/10/25 08:41:14;;;;;;;16.67;9.45;;;7.60;14.20;;;;;;5065230;28;20080;-68
2021/10/25 08:43:46;;;;;;;14.05;8.95;;;7.70;14.30;;;;;;5062936;28;20182;-69
2021/10/25 08:46:18;;;;;;;14.57;9.98;;;7.80;13.40;;;;;;5057538;28;20045;-69
2021/10/25 08:48:54;;;;;;;13.98;9.50;;;8.00;13.20;;;;;;5063087;28;20049;-69
2021/10/25 08:51:23;;;;;;;12.70;8.75;;;8.10;12.30;;;;;;5066428;28;20076;-69
2021/10/25 08:53:52;;;;;;;13.07;9.07;;;8.10;12.10;;;;;;5065654;28;20063;-68
2021/10/25 08:56:22;;;;;;;15.35;10.07;;;8.20;11.00;;;;;;5061054;28;20809;-69
2021/10/25 08:58:53;;;;;;;20.40;10.27;;;8.20;11.00;;;;;;5063153;28;20136;-68
2021/10/25 09:01:27;;;;;;;13.52;9.25;;;8.20;10.90;;;;;;5055686;28;20056;-68
2021/10/25 09:04:04;;;;;;;16.77;9.90;;;8.30;10.90;;;;;;5056607;28;20055;-68
2021/10/25 09:06:32;;;;;;;12.43;9.55;;;8.50;11.20;;;;;;5059032;28;20086;-69
2021/10/25 09:09:01;;;;;;;12.98;9.25;;;8.50;10.10;;;;;;5061539;28;20453;-68
2021/10/25 09:11:31;;;;;;;13.30;9.30;;;8.50;10.00;;;;;;5059811;28;20037;-69
2021/10/25 09:13:59;;;;;;;15.98;9.35;;;8.70;10.30;;;;;;5055018;28;20055;-68
2021/10/25 09:16:28;;;;;;;14.32;8.98;;;8.70;9.10;;;;;;5049559;28;20053;-68
2021/10/25 09:18:58;;;;;;;13.25;9.00;;;8.70;9.00;;;;;;5060427;28;20036;-69
2021/10/25 09:21:34;;;;;;;17.75;9.48;;;8.90;8.70;;;;;;5055731;28;20045;-69
2021/10/25 09:24:05;;;;;;;13.52;8.45;;;8.90;7.80;;;;;;5068183;28;20515;-68
2021/10/25 09:26:39;;;;;;;15.15;9.00;;;9.10;7.10;;;;;;5057356;28;20102;-69
2021/10/25 09:29:10;;;;;;;13.75;8.73;;;9.20;6.20;;;;;;5062782;28;20045;-70
2021/10/25 09:31:39;;;;;;;14.88;8.70;;;9.30;5.10;;;;;;5060090;28;20048;-68
2021/10/25 09:34:13;;;;;;;15.02;8.40;;;9.30;4.40;;;;;;5064006;28;20052;-69
2021/10/25 09:36:46;;;;;;;12.07;9.25;;;9.50;4.50;;;;;;5051505;28;20895;-69
2021/10/25 09:39:19;;;;;;;15.82;9.75;;;9.60;3.90;;;;;;5060797;28;20045;-69
2021/10/25 09:42:11;;;;;;;11.20;8.82;;;9.80;3.20;;;;;;5057776;28;20068;-69
2021/10/25 09:50:20;;;;;;;15.07;8.55;;;10.40;1.00;;;;;;5023291;28;20432;-68
2021/10/25 09:52:51;;;;;;;11.85;7.90;;;10.60;1.00;;;;;;5060468;28;20427;-69
2021/10/25 09:55:22;;;;;;;12.32;7.25;;;10.80;1.00;;;;;;5066562;28;20055;-69
2021/10/25 09:58:04;;;;;;;10.32;7.40;;;10.90;1.00;;;;;;5060833;28;20572;-69
2021/10/25 10:00:33;;;;;;;10.13;7.50;;;11.20;1.00;;;;;;5057442;28;20071;-69
2021/10/25 10:03:02;;;;;;;8.27;6.43;;;11.40;1.00;;;;;;5066211;28;20063;-68
2021/10/25 10:05:36;;;;;;;8.43;6.00;;;11.40;1.00;;;;;;5053668;28;20056;-68
2021/10/25 10:08:05;;;;;;;10.00;6.45;;;11.70;1.00;;;;;;5051768;28;20041;-68
2021/10/25 10:10:33;;;;;;;9.07;6.22;;;11.80;1.00;;;;;;5057832;28;20151;-68
2021/10/25 10:13:12;;;;;;;11.90;6.03;;;11.80;1.00;;;;;;5057806;28;20044;-68
2021/10/25 10:15:45;;;;;;;18.65;11.10;;;11.70;1.00;;;;;;5058647;28;20045;-69
2021/10/25 10:18:19;;;;;;;10.95;6.07;;;11.70;1.00;;;;;;5058330;28;20063;-68
2021/10/25 10:20:50;;;;;;;7.72;5.70;;;11.70;1.00;;;;;;5058542;28;20076;-69
2021/10/25 10:23:22;;;;;;;9.25;5.82;;;11.70;1.00;;;;;;5059605;28;20118;-68
2021/10/25 10:25:54;;;;;;;9.10;6.22;;;11.80;1.00;;;;;;5055317;28;20059;-68
2021/10/25 10:28:39;;;;;;;8.38;5.63;;;12.00;1.00;;;;;;5053230;28;20037;-68
2021/10/25 10:31:10;;;;;;;9.05;5.35;;;12.10;1.00;;;;;;5057515;28;20071;-70
2021/10/25 10:33:40;;;;;;;9.02;5.65;;;12.30;1.00;;;;;;5060771;28;20414;-67
2021/10/25 10:36:11;;;;;;;8.77;5.25;;;12.40;1.00;;;;;;5054166;28;20052;-67
2021/10/25 10:38:51;;;;;;;9.57;6.13;;;12.50;1.00;;;;;;5058226;28;20625;-68
2021/10/25 10:41:37;;;;;;;7.82;5.15;;;12.40;1.00;;;;;;5057012;28;20213;-69
2021/10/25 10:44:09;;;;;;;10.27;5.40;;;12.60;1.00;;;;;;5055811;28;20032;-68
2021/10/25 10:46:46;;;;;;;7.20;4.80;;;12.70;1.00;;;;;;5056558;28;20078;-67
2021/10/25 10:49:22;;;;;;;7.30;4.57;;;12.90;1.00;;;;;;5054496;28;20070;-68
2021/10/25 10:52:12;;;;;;;6.47;4.57;;;12.90;1.00;;;;;;5054321;28;20052;-67
2021/10/25 10:54:51;;;;;;;7.97;5.10;;;13.10;1.00;;;;;;5044136;28;20099;-67
2021/10/25 11:00:05;;;;;;;8.38;4.80;;;13.40;1.00;;;;;;5056947;28;20060;-68
2021/10/25 11:02:34;;;;;;;6.18;4.38;;;13.40;1.00;;;;;;5053551;28;20564;-68
2021/10/25 11:05:10;;;;;;;6.72;4.53;;;13.50;1.00;;;;;;5050950;28;20048;-67
2021/10/25 11:07:42;;;;;;;6.30;4.13;;;13.50;1.00;;;;;;5062119;28;20047;-68
2021/10/25 11:10:13;;;;;;;6.75;5.10;;;13.50;1.00;;;;;;5059112;28;20052;-67
2021/10/25 11:12:45;;;;;;;6.82;4.35;;;13.70;1.00;;;;;;5059034;28;20055;-68
2021/10/25 11:15:16;;;;;;;5.07;3.78;;;13.60;1.00;;;;;;5056398;28;20052;-68
2021/10/25 11:17:46;;;;;;;7.80;4.38;;;13.60;1.00;;;;;;5054126;28;20409;-68
2021/10/25 11:20:15;;;;;;;6.07;3.63;;;13.40;1.00;;;;;;5055473;28;20164;-67
2021/10/25 11:22:46;;;;;;;7.20;3.63;;;13.50;1.00;;;;;;5061243;28;20040;-68
2021/10/25 11:25:16;;;;;;;6.93;3.22;;;13.60;1.00;;;;;;5055536;28;20093;-67
2021/10/25 11:27:45;;;;;;;8.00;3.67;;;13.90;1.00;;;;;;5057073;28;20151;-67
2021/10/25 11:30:19;;;;;;;6.57;3.63;;;14.10;1.00;;;;;;5052855;28;20056;-68
2021/10/25 11:32:49;;;;;;;5.55;3.45;;;14.00;1.00;;;;;;5053494;28;20504;-67
2021/10/25 11:35:19;;;;;;;5.97;4.10;;;14.20;1.00;;;;;;5061360;28;20048;-68
2021/10/25 11:37:50;;;;;;;4.90;3.30;;;14.20;1.00;;;;;;5056686;28;20110;-67
2021/10/25 11:40:23;;;;;;;6.38;3.72;;;14.20;1.00;;;;;;5054838;28;20809;-67
2021/10/25 11:42:59;;;;;;;3.47;3.00;;;14.20;1.00;;;;;;5055353;28;20048;-68
2021/10/25 11:45:30;;;;;;;5.40;3.80;;;14.10;1.00;;;;;;5039246;28;20128;-67
2021/10/25 11:47:59;;;;;;;6.53;3.85;;;14.10;1.00;;;;;;5050085;28;20068;-68
2021/10/25 11:50:32;;;;;;;10.07;3.63;;;14.20;1.00;;;;;;5051923;28;20055;-66
2021/10/25 11:53:06;;;;;;;7.70;3.72;;;14.30;1.00;;;;;;5042321;28;20056;-67
2021/10/25 11:55:37;;;;;;;7.30;3.10;;;14.40;1.00;;;;;;5047888;28;20041;-68
2021/10/25 11:58:13;;;;;;;5.53;3.15;;;14.50;1.00;;;;;;5012515;28;20094;-67
2021/10/25 12:00:47;;;;;;;3.80;2.70;;;14.60;1.00;;;;;;5033167;28;20052;-67
2021/10/25 12:03:19;;;;;;;3.70;2.70;;;14.50;1.00;;;;;;5048360;28;20075;-69
2021/10/25 12:05:47;;;;;;;4.85;2.65;;;14.70;1.00;;;;;;5051163;28;20055;-67
2021/10/25 12:08:17;;;;;;;3.72;2.40;;;14.50;1.00;;;;;;5048717;28;20069;-67
2021/10/25 12:10:48;;;;;;;3.58;2.40;;;14.60;1.00;;;;;;5053605;28;21199;-67
2021/10/25 12:13:19;;;;;;;4.30;2.30;;;14.60;1.00;;;;;;5056207;28;20045;-67
2021/10/25 12:15:54;;;;;;;3.85;2.80;;;14.60;1.00;;;;;;5049573;28;20447;-67
2021/10/25 12:18:22;;;;;;;5.03;2.38;;;14.70;1.00;;;;;;5057433;28;20098;-67
2021/10/25 12:20:53;;;;;;;3.20;2.45;;;14.70;1.00;;;;;;5061051;28;20044;-67
2021/10/25 12:23:29;;;;;;;5.63;2.35;;;14.80;1.00;;;;;;5058338;28;20376;-67
2021/10/25 12:26:03;;;;;;;10.68;3.25;;;14.90;1.00;;;;;;5053915;28;20576;-68
2021/10/25 12:28:36;;;;;;;5.40;2.72;;;15.00;1.00;;;;;;5058874;28;20063;-67
2021/10/25 12:31:14;;;;;;;4.22;2.30;;;15.00;1.00;;;;;;5056186;28;20045;-68
2021/10/25 12:33:51;;;;;;;5.82;3.00;;;15.00;1.00;;;;;;5041656;28;20041;-67
2021/10/25 12:36:21;;;;;;;4.68;2.83;;;15.00;1.00;;;;;;5059353;28;20055;-67
2021/10/25 12:38:52;;;;;;;6.60;2.67;;;15.10;1.00;;;;;;5059148;28;20044;-68
2021/10/25 12:41:21;;;;;;;4.38;3.00;;;15.10;1.00;;;;;;5055068;28;20037;-67
2021/10/25 12:43:56;;;;;;;6.28;3.00;;;15.10;1.00;;;;;;5060496;28;20045;-66
2021/10/25 12:46:33;;;;;;;8.80;3.42;;;15.10;1.00;;;;;;5059810;28;20045;-66
2021/10/25 12:49:08;;;;;;;5.53;3.03;;;15.10;1.00;;;;;;5058359;28;20045;-67
2021/10/25 12:51:39;;;;;;;4.82;3.00;;;15.30;1.00;;;;;;5068313;28;20037;-68
2021/10/25 12:54:14;;;;;;;21.58;13.77;;;15.30;1.00;;;;;;5068136;28;20052;-67
2021/10/25 12:56:46;;;;;;;5.85;3.50;;;15.40;1.00;;;;;;5056355;28;20045;-68
2021/10/25 12:59:19;;;;;;;5.82;3.45;;;15.50;1.00;;;;;;5061227;28;20048;-68
2021/10/25 13:01:57;;;;;;;6.38;3.42;;;15.50;1.00;;;;;;5063868;28;20040;-67
2021/10/25 13:04:27;;;;;;;7.07;3.50;;;15.70;1.00;;;;;;5057917;28;20057;-69
2021/10/25 13:06:55;;;;;;;3.55;2.53;;;15.70;1.00;;;;;;5062742;28;20040;-66
2021/10/25 13:09:27;;;;;;;6.88;2.83;;;15.70;1.00;;;;;;5062336;28;20044;-67
2021/10/25 13:11:56;;;;;;;5.07;2.90;;;15.70;1.00;;;;;;5053810;28;20052;-67
2021/10/25 13:14:25;;;;;;;4.93;2.60;;;15.70;1.00;;;;;;5063135;28;20048;-67
2021/10/25 13:16:55;;;;;;;5.70;2.75;;;15.70;1.00;;;;;;5058079;28;20083;-67
2021/10/25 13:19:27;;;;;;;3.45;2.47;;;15.80;1.00;;;;;;5058304;28;20048;-68
2021/10/25 13:21:55;;;;;;;4.13;2.45;;;15.80;1.00;;;;;;5066190;28;20056;-68
2021/10/25 13:24:23;;;;;;;3.30;2.25;;;15.80;1.00;;;;;;5059796;28;20059;-68
2021/10/25 13:26:55;;;;;;;3.72;2.00;;;15.80;1.00;;;;;;5061338;28;20051;-68
2021/10/25 13:29:25;;;;;;;6.38;3.42;;;15.80;1.00;;;;;;5071983;28;20033;-68
2021/10/25 13:31:55;;;;;;;3.25;2.17;;;15.80;1.00;;;;;;5057510;28;20136;-67
2021/10/25 13:34:23;;;;;;;4.00;2.30;;;15.80;1.00;;;;;;5068621;28;20052;-67
2021/10/25 13:36:52;;;;;;;6.80;2.40;;;15.80;1.00;;;;;;5063465;28;20687;-67
2021/10/25 13:39:23;;;;;;;3.55;2.08;;;15.90;1.00;;;;;;5059031;28;20183;-71
2021/10/25 13:41:56;;;;;;;5.10;2.70;;;15.80;1.00;;;;;;5058255;28;20132;-68
2021/10/25 13:44:25;;;;;;;3.40;2.30;;;15.80;1.00;;;;;;5060419;28;20050;-68
2021/10/25 13:46:53;;;;;;;3.33;2.40;;;15.80;1.00;;;;;;5055599;28;20045;-67
2021/10/25 13:49:24;;;;;;;6.25;2.60;;;15.90;1.00;;;;;;5067837;28;20044;-67
2021/10/25 13:51:54;;;;;;;9.38;2.58;;;16.00;1.00;;;;;;5049932;28;20052;-67
2021/10/25 13:54:23;;;;;;;7.53;2.88;;;15.90;1.00;;;;;;5060381;28;20126;-68
2021/10/25 13:56:51;;;;;;;4.82;3.00;;;16.00;1.00;;;;;;5048153;28;20052;-68
2021/10/25 13:59:21;;;;;;;5.90;3.05;;;15.90;1.00;;;;;;5051202;28;20459;-67
2021/10/25 14:01:49;;;;;;;5.68;3.28;;;15.90;1.00;;;;;;5048166;28;20067;-67
2021/10/25 14:04:19;;;;;;;7.82;3.42;;;16.10;1.00;;;;;;5052990;28;20037;-67
2021/10/25 14:06:50;;;;;;;4.43;2.58;;;16.10;1.00;;;;;;5042846;28;20103;-67
2021/10/25 14:09:21;;;;;;;5.10;2.92;;;16.20;1.00;;;;;;5043651;28;20144;-67
2021/10/25 14:11:52;;;;;;;4.95;3.17;;;15.90;1.00;;;;;;5048893;28;20064;-67
2021/10/25 14:14:22;;;;;;;6.00;3.03;;;16.00;1.00;;;;;;5050366;28;20044;-68
2021/10/25 14:16:52;;;;;;;5.03;3.08;;;16.00;1.00;;;;;;5049584;28;20081;-68
2021/10/25 14:19:21;;;;;;;6.28;3.17;;;16.10;1.00;;;;;;5050279;28;20372;-67
2021/10/25 14:21:53;;;;;;;4.95;2.33;;;16.00;1.00;;;;;;5048865;28;20040;-67
2021/10/25 14:24:23;;;;;;;6.03;2.65;;;15.90;1.00;;;;;;5053381;28;20033;-67
2021/10/25 14:26:56;;;;;;;;;;;16.00;1.00;;;;;;5049721;28;20041;-67
2021/10/25 14:29:25;;;;;;;3.60;1.95;;;16.20;1.00;;;;;;5053632;28;19924;-68
2021/10/25 14:31:53;;;;;;;7.45;2.63;;;16.10;1.00;;;;;;5045404;28;20155;-67